KLCI/LCI METAR and TAF weather

Enter ICAO airport designator
Station Type Date Time Source
KLCI METAR 2021/03/05 19:56 UTC NOAA

KLCI 051956Z AUTO 28006G19KT 10SM BKN060 M04/M19 A2963 RMK AO2 PK WND 26026/1914 SLP042 T10391189 FZRANO


Station Type Date Time Source
KLCI Decoded METAR 2021/03/05 19:56 UTC NOAA

Laconia, Laconia Municipal Airport, NH, United States (KLCI) 43-34N 071-25W
Mar 05, 2021 - 02:56 PM EST / 2021.03.05 1956 UTC
Wind: from the W (280 degrees) at 7 MPH (6 KT) gusting to 22 MPH (19 KT):0
Visibility: 10 mile(s):0
Sky conditions: mostly cloudy
Temperature: 25.0 F (-3.9 C)
Windchill: 17 F (-8 C):1
Dew Point: -2.0 F (-18.9 C)
Relative Humidity: 30%
Pressure (altimeter): 29.63 in. Hg (1003 hPa)
ob: KLCI 051956Z AUTO 28006G19KT 10SM BKN060 M04/M19 A2963 RMK AO2 PK WND 26026/1914 SLP042 T10391189 FZRANO
cycle: 20

Station Type Date Time Source
KLCI TAF UTC NOAA

Error!

Example: see airport list